createdAt,value
2023-04-26T00:01:20.647Z,3.33
2023-04-26T00:04:08.183Z,3.47
2023-04-26T00:06:54.245Z,3.15
2023-04-26T00:09:41.747Z,3.40
2023-04-26T00:12:27.968Z,3.08
2023-04-26T00:15:14.091Z,3.30
2023-04-26T00:17:59.928Z,3.05
2023-04-26T00:20:46.232Z,3.22
2023-04-26T00:23:32.276Z,2.50
2023-04-26T00:26:18.299Z,2.47
2023-04-26T00:29:04.812Z,2.60
2023-04-26T00:31:50.787Z,2.40
2023-04-26T00:34:37.789Z,2.40
2023-04-26T00:37:25.449Z,2.17
2023-04-26T00:40:11.873Z,2.00
2023-04-26T00:42:59.095Z,2.20
2023-04-26T00:45:45.879Z,2.00
2023-04-26T00:48:32.037Z,2.40
2023-04-26T00:51:18.004Z,2.10
2023-04-26T00:54:03.777Z,2.20
2023-04-26T00:56:52.237Z,2.20
2023-04-26T00:59:38.375Z,1.98
2023-04-26T01:02:24.347Z,2.00
2023-04-26T01:05:11.099Z,1.70
2023-04-26T01:07:57.804Z,2.13
2023-04-26T01:10:44.260Z,2.08
2023-04-26T01:13:32.407Z,2.03
2023-04-26T01:16:20.109Z,2.10
2023-04-26T01:19:12.953Z,2.03
2023-04-26T01:22:02.150Z,1.80
2023-04-26T01:24:51.183Z,2.30
2023-04-26T01:27:37.416Z,2.38
2023-04-26T01:30:23.293Z,2.38
2023-04-26T01:33:09.358Z,2.30
2023-04-26T01:35:55.220Z,2.45
2023-04-26T01:38:42.018Z,2.47
2023-04-26T01:41:27.946Z,2.40
2023-04-26T01:44:26.804Z,2.22
2023-04-26T01:47:12.644Z,2.47
2023-04-26T01:49:58.393Z,2.35
2023-04-26T01:52:44.535Z,2.40
2023-04-26T01:55:31.264Z,2.60
2023-04-26T01:58:17.440Z,2.00
2023-04-26T02:01:08.564Z,2.15
2023-04-26T02:03:56.204Z,2.33
2023-04-26T02:06:42.476Z,2.45
2023-04-26T02:09:28.251Z,2.22
2023-04-26T02:12:14.032Z,2.10
2023-04-26T02:15:00.178Z,2.50
2023-04-26T02:17:47.192Z,2.90
2023-04-26T02:20:33.685Z,2.78
2023-04-26T02:23:19.706Z,3.00
2023-04-26T02:26:05.591Z,2.65
2023-04-26T02:28:51.679Z,2.60
2023-04-26T02:31:38.044Z,2.70
2023-04-26T02:34:24.912Z,2.47
2023-04-26T02:37:11.867Z,2.63
2023-04-26T02:39:57.908Z,2.40
2023-04-26T02:42:43.678Z,2.40
2023-04-26T02:45:30.020Z,2.25
2023-04-26T02:48:15.896Z,2.80
2023-04-26T02:51:01.883Z,2.72
2023-04-26T02:53:47.794Z,2.75
2023-04-26T02:56:33.508Z,2.85
2023-04-26T02:59:20.070Z,2.28
2023-04-26T03:02:07.636Z,2.53
2023-04-26T03:04:53.887Z,2.20
2023-04-26T03:07:41.064Z,2.38
2023-04-26T03:10:27.069Z,2.50
2023-04-26T03:13:13.017Z,2.78
2023-04-26T03:15:59.200Z,2.42
2023-04-26T03:18:45.018Z,2.70
2023-04-26T03:21:31.959Z,2.22
2023-04-26T03:24:18.464Z,1.92
2023-04-26T03:27:04.732Z,1.95
2023-04-26T03:29:51.038Z,2.17
2023-04-26T03:32:37.000Z,2.63
2023-04-26T03:35:23.156Z,1.63
2023-04-26T03:38:09.353Z,1.88
2023-04-26T03:40:55.431Z,1.63
2023-04-26T03:43:42.680Z,1.42
2023-04-26T03:46:28.578Z,1.15
2023-04-26T03:49:14.878Z,1.17
2023-04-26T03:52:00.833Z,1.30
2023-04-26T03:54:47.091Z,1.35
2023-04-26T03:57:33.129Z,2.30
2023-04-26T04:00:19.806Z,1.23
2023-04-26T04:03:08.832Z,1.20
2023-04-26T04:05:54.953Z,1.35
2023-04-26T04:08:41.025Z,1.73
2023-04-26T04:11:27.714Z,1.38
2023-04-26T04:14:13.453Z,1.80
2023-04-26T04:16:59.819Z,2.13
2023-04-26T04:19:46.874Z,2.45
2023-04-26T04:22:32.755Z,2.30
2023-04-26T04:25:21.512Z,2.25
2023-04-26T04:28:08.638Z,1.80
2023-04-26T04:30:57.197Z,1.88
2023-04-26T04:33:43.681Z,1.67
2023-04-26T04:36:32.598Z,1.63
2023-04-26T04:39:19.121Z,1.50
2023-04-26T04:42:05.246Z,1.40
2023-04-26T04:44:51.351Z,1.48
2023-04-26T04:47:39.904Z,1.70
2023-04-26T04:50:25.732Z,1.42
2023-04-26T04:53:14.845Z,1.65
2023-04-26T04:56:00.993Z,2.10
2023-04-26T04:58:47.951Z,2.30
2023-04-26T05:01:39.482Z,2.28
2023-04-26T05:04:31.944Z,2.20
2023-04-26T05:07:18.595Z,2.22
2023-04-26T05:10:05.665Z,2.03
2023-04-26T05:12:51.760Z,2.63
2023-04-26T05:15:38.472Z,2.25
2023-04-26T05:18:24.511Z,2.10
2023-04-26T05:21:10.465Z,2.22
2023-04-26T05:25:00.244Z,2.20
2023-04-26T05:27:46.671Z,3.08
2023-04-26T05:30:55.898Z,2.90
2023-04-26T05:33:52.229Z,3.20
2023-04-26T05:36:47.771Z,2.60
2023-04-26T05:39:33.552Z,2.60
2023-04-26T05:42:19.428Z,2.92
2023-04-26T05:45:06.745Z,2.72
2023-04-26T06:05:47.503Z,3.05
2023-04-26T06:08:33.701Z,2.90
2023-04-26T06:11:19.741Z,2.45
2023-04-26T06:14:06.792Z,2.38
2023-04-26T06:16:53.830Z,2.25
2023-04-26T06:19:40.482Z,2.00
2023-04-26T06:22:26.270Z,2.08
2023-04-26T06:25:13.092Z,2.38
2023-04-26T06:27:59.092Z,2.75
2023-04-26T06:30:45.970Z,2.83
2023-04-26T06:33:32.598Z,3.00
2023-04-26T06:36:18.509Z,2.67
2023-04-26T06:39:04.484Z,4.00
2023-04-26T06:41:52.639Z,3.13
2023-04-26T06:44:46.952Z,3.40
2023-04-26T06:47:33.131Z,3.85
2023-04-26T06:50:19.187Z,2.80
2023-04-26T06:53:05.247Z,2.80
2023-04-26T06:55:53.228Z,2.70
2023-04-26T06:58:39.287Z,2.60
2023-04-26T07:01:24.950Z,2.55
2023-04-26T07:04:11.346Z,2.78
2023-04-26T07:06:57.930Z,2.90
2023-04-26T07:09:44.117Z,2.55
2023-04-26T07:12:30.054Z,5.00
2023-04-26T07:15:16.050Z,2.95
2023-04-26T07:18:02.087Z,7.70
2023-04-26T07:20:48.356Z,2.75
2023-04-26T07:23:34.112Z,2.63
2023-04-26T07:26:19.731Z,2.90
2023-04-26T07:29:05.574Z,3.05
2023-04-26T07:31:51.420Z,2.80
2023-04-26T07:34:37.714Z,2.70
2023-04-26T07:37:23.529Z,2.80
2023-04-26T07:40:11.041Z,3.17
2023-04-26T07:42:57.209Z,2.78
2023-04-26T07:45:43.470Z,2.80
2023-04-26T07:48:29.434Z,2.90
2023-04-26T07:51:15.225Z,3.35
2023-04-26T07:54:01.848Z,3.10
2023-04-26T07:56:47.655Z,3.70
2023-04-26T07:59:33.481Z,3.15
2023-04-26T08:02:21.610Z,1.90
2023-04-26T08:05:11.167Z,2.58
2023-04-26T08:07:57.489Z,2.03
2023-04-26T08:10:43.599Z,2.42
2023-04-26T08:13:29.612Z,7.57
2023-04-26T08:16:15.635Z,13.30
2023-04-26T08:19:03.080Z,7.82
2023-04-26T08:21:48.796Z,2.30
2023-04-26T08:24:34.503Z,5.80
2023-04-26T08:27:20.123Z,12.80
2023-04-26T08:30:06.940Z,14.60
2023-04-26T08:32:52.995Z,8.07
2023-04-26T08:35:38.752Z,3.95
2023-04-26T09:27:16.820Z,4.35
2023-04-26T09:30:16.018Z,5.28
2023-04-26T09:33:04.705Z,4.00
2023-04-26T09:35:50.597Z,2.78
2023-04-26T09:38:42.433Z,4.35
2023-04-26T09:41:45.019Z,4.43
2023-04-26T09:44:34.102Z,13.68
2023-04-26T09:47:22.235Z,11.93
2023-04-26T09:50:08.449Z,7.78
2023-04-26T09:52:54.400Z,5.25
2023-04-26T09:55:40.219Z,4.22
2023-04-26T09:58:26.766Z,2.78
2023-04-26T10:01:14.838Z,3.28
2023-04-26T10:04:04.829Z,2.75
2023-04-26T10:06:51.097Z,2.08
2023-04-26T10:09:37.138Z,2.10
2023-04-26T10:12:22.947Z,2.10
2023-04-26T10:15:10.385Z,1.83
2023-04-26T10:17:56.383Z,3.60
2023-04-26T10:20:45.127Z,3.00
2023-04-26T10:23:33.401Z,16.35
2023-04-26T10:26:48.240Z,3.22
2023-04-26T10:29:55.871Z,3.05
2023-04-26T10:32:57.117Z,2.30
2023-04-26T10:36:07.028Z,3.97
2023-04-26T10:39:25.155Z,1.80
2023-04-26T10:42:26.761Z,1.73
2023-04-26T10:45:29.233Z,1.10
2023-04-26T10:48:20.016Z,3.47
2023-04-26T10:51:09.205Z,1.55
2023-04-26T10:53:55.285Z,1.30
2023-04-26T10:56:42.555Z,1.23
2023-04-26T10:59:43.361Z,1.27
2023-04-26T11:02:52.370Z,1.25
2023-04-26T11:05:42.859Z,0.70
2023-04-26T11:08:31.778Z,0.80
2023-04-26T11:11:21.425Z,0.80
2023-04-26T11:14:08.965Z,1.30
2023-04-26T11:16:54.989Z,1.42
2023-04-26T11:19:47.155Z,1.30
2023-04-26T11:22:34.911Z,1.40
2023-04-26T11:25:20.952Z,1.63
2023-04-26T11:28:07.059Z,1.40
2023-04-26T11:30:53.056Z,1.55
2023-04-26T11:33:41.668Z,1.52
2023-04-26T11:36:28.467Z,1.27
2023-04-26T11:39:15.083Z,2.53
2023-04-26T11:42:08.217Z,1.55
2023-04-26T11:44:57.677Z,1.83
2023-04-26T11:47:44.994Z,1.40
2023-04-26T11:50:32.394Z,1.10
2023-04-26T11:53:18.598Z,1.60
2023-04-26T11:56:18.050Z,1.30
2023-04-26T11:59:04.234Z,1.35
2023-04-26T12:01:51.763Z,1.80
2023-04-26T12:04:38.874Z,2.28
2023-04-26T12:07:24.818Z,2.40
2023-04-26T12:10:15.778Z,2.10
2023-04-26T12:13:04.973Z,1.85
2023-04-26T12:15:52.453Z,2.63
2023-04-26T12:18:39.967Z,1.95
2023-04-26T12:21:27.529Z,2.47
2023-04-26T12:24:28.716Z,2.10
2023-04-26T12:27:26.055Z,1.95
2023-04-26T12:30:13.099Z,3.20
2023-04-26T12:33:09.079Z,2.88
2023-04-26T12:36:12.034Z,3.08
2023-04-26T12:38:58.209Z,3.40
2023-04-26T12:41:47.494Z,3.38
2023-04-26T12:44:33.910Z,2.90
2023-04-26T12:47:19.888Z,2.65
2023-04-26T12:50:06.793Z,2.78
2023-04-26T12:52:52.878Z,2.65
2023-04-26T12:55:39.820Z,2.78
2023-04-26T12:58:25.994Z,3.58
2023-04-26T13:01:13.443Z,3.60
2023-04-26T13:04:00.955Z,3.40
2023-04-26T13:06:47.217Z,3.05
2023-04-26T13:09:33.174Z,3.00
2023-04-26T13:12:19.097Z,3.03
2023-04-26T13:15:08.532Z,2.60
2023-04-26T13:17:54.629Z,3.00
2023-04-26T13:20:40.749Z,2.60
2023-04-26T13:23:26.744Z,3.35
2023-04-26T13:26:15.225Z,2.35
2023-04-26T13:29:01.280Z,3.13
2023-04-26T13:31:47.500Z,3.00
2023-04-26T13:34:33.510Z,2.50
2023-04-26T13:37:21.480Z,2.70
2023-04-26T13:40:08.354Z,5.15
2023-04-26T13:42:54.401Z,2.58
2023-04-26T13:45:40.237Z,3.28
2023-04-26T13:48:26.787Z,14.73
2023-04-26T13:51:12.710Z,3.72
2023-04-26T13:53:58.892Z,9.60
2023-04-26T13:56:44.981Z,4.97
2023-04-26T13:59:31.141Z,3.20
2023-04-26T14:02:17.620Z,3.15
2023-04-26T14:05:05.240Z,2.60
2023-04-26T14:07:53.626Z,2.78
2023-04-26T14:10:40.929Z,3.15
2023-04-26T14:13:26.947Z,2.20
2023-04-26T14:16:12.964Z,2.78
2023-04-26T14:18:58.999Z,2.72
2023-04-26T14:21:44.895Z,2.28
2023-04-26T14:24:30.727Z,2.13
2023-04-26T14:27:17.115Z,2.08
2023-04-26T14:30:03.472Z,2.15
2023-04-26T14:32:49.452Z,2.55
2023-04-26T14:35:36.189Z,2.40
2023-04-26T14:38:22.387Z,2.42
2023-04-26T14:41:08.723Z,2.42
2023-04-26T14:43:54.739Z,2.42
2023-04-26T14:46:41.755Z,2.83
2023-04-26T14:49:27.574Z,2.00
2023-04-26T14:52:13.254Z,2.15
2023-04-26T14:54:59.135Z,2.30
2023-04-26T14:57:45.508Z,2.65
2023-04-26T15:00:31.394Z,2.70
2023-04-26T15:03:17.956Z,2.25
2023-04-26T15:06:03.830Z,1.98
2023-04-26T15:08:50.655Z,2.60
2023-04-26T15:11:36.606Z,2.60
2023-04-26T15:14:23.185Z,1.90
2023-04-26T15:17:09.288Z,2.00
2023-04-26T15:19:56.452Z,2.40
2023-04-26T15:22:43.055Z,3.33
2023-04-26T15:25:29.541Z,2.63
2023-04-26T15:28:16.532Z,3.38
2023-04-26T15:31:04.458Z,3.58
2023-04-26T15:33:50.959Z,2.85
2023-04-26T15:36:37.158Z,2.88
2023-04-26T15:39:23.443Z,2.20
2023-04-26T15:42:09.731Z,2.85
2023-04-26T15:44:56.048Z,2.10
2023-04-26T15:47:42.118Z,2.20
2023-04-26T15:50:28.165Z,2.28
2023-04-26T15:53:14.392Z,2.03
2023-04-26T15:56:00.192Z,1.75
2023-04-26T15:58:46.816Z,1.90
2023-04-26T16:01:32.913Z,2.05
2023-04-26T16:04:18.812Z,2.00
2023-04-26T16:07:05.037Z,1.92
2023-04-26T16:09:50.732Z,1.77
2023-04-26T16:12:39.547Z,1.80
2023-04-26T16:15:26.119Z,1.90
2023-04-26T16:18:11.881Z,2.28
2023-04-26T16:21:07.649Z,2.00
2023-04-26T16:23:53.881Z,2.20
2023-04-26T16:26:40.419Z,2.10
2023-04-26T16:29:26.440Z,2.55
2023-04-26T16:32:12.350Z,2.78
2023-04-26T16:34:58.148Z,2.85
2023-04-26T16:37:44.816Z,2.38
2023-04-26T16:40:30.686Z,2.25
2023-04-26T16:43:17.118Z,2.40
2023-04-26T16:46:08.084Z,2.80
2023-04-26T16:48:54.553Z,2.90
2023-04-26T16:51:42.267Z,3.42
2023-04-26T16:54:28.455Z,3.17
2023-04-26T16:57:14.384Z,3.00
2023-04-26T17:00:00.564Z,3.08
2023-04-26T17:02:49.207Z,2.85
2023-04-26T17:05:49.159Z,2.75
2023-04-26T17:08:35.537Z,2.40
2023-04-26T17:11:22.972Z,2.40
2023-04-26T17:14:09.812Z,2.53
2023-04-26T17:16:55.993Z,3.20
2023-04-26T17:19:42.004Z,2.70
2023-04-26T17:22:27.802Z,2.72
2023-04-26T17:25:13.889Z,3.20
2023-04-26T17:27:59.958Z,3.00
2023-04-26T17:30:45.738Z,3.10
2023-04-26T17:33:31.988Z,6.35
2023-04-26T17:36:18.017Z,16.70
2023-04-26T17:39:04.057Z,41.83
2023-04-26T17:41:51.359Z,24.88
2023-04-26T17:44:37.239Z,32.88
2023-04-26T17:47:23.198Z,23.48
2023-04-26T17:50:09.703Z,7.70
2023-04-26T17:53:14.038Z,12.63
2023-04-26T17:56:07.735Z,3.90
2023-04-26T17:58:53.626Z,3.27
2023-04-26T18:01:39.828Z,3.08
2023-04-26T18:05:08.745Z,2.65
2023-04-26T18:07:54.606Z,2.92
2023-04-26T18:10:48.582Z,3.53
2023-04-26T18:13:41.059Z,2.92
2023-04-26T18:16:30.306Z,6.55
2023-04-26T18:19:17.031Z,10.40
2023-04-26T18:22:03.014Z,20.95
2023-04-26T18:24:49.187Z,7.57
2023-04-26T18:27:35.192Z,4.38
2023-04-26T18:30:21.549Z,3.42
2023-04-26T18:33:07.900Z,3.40
2023-04-26T18:35:54.564Z,3.67
2023-04-26T18:38:40.767Z,2.63
2023-04-26T18:41:26.838Z,3.47
2023-04-26T18:44:15.540Z,4.00
2023-04-26T18:47:01.663Z,3.45
2023-04-26T18:49:47.468Z,3.38
2023-04-26T18:52:35.135Z,3.58
2023-04-26T18:55:21.176Z,3.22
2023-04-26T18:58:14.663Z,7.03
2023-04-26T19:01:01.150Z,3.38
2023-04-26T19:03:48.560Z,3.42
2023-04-26T19:06:35.015Z,4.35
2023-04-26T19:09:21.818Z,2.72
2023-04-26T19:16:35.460Z,3.45
2023-04-26T19:19:21.969Z,3.08
2023-04-26T19:22:08.262Z,3.08
2023-04-26T19:24:54.337Z,2.78
2023-04-26T19:32:00.287Z,3.60
2023-04-26T20:30:26.043Z,2.60
2023-04-26T20:33:11.880Z,2.83
2023-04-26T20:35:58.130Z,2.85
2023-04-26T21:20:37.716Z,3.20
2023-04-26T21:38:37.968Z,3.28
2023-04-26T21:43:08.004Z,2.58
2023-04-26T21:47:37.967Z,3.67
2023-04-26T21:52:07.932Z,3.30
2023-04-26T21:56:39.124Z,3.00
2023-04-26T22:01:25.556Z,3.25
2023-04-26T22:05:49.808Z,3.40
2023-04-26T22:37:55.930Z,2.78
2023-04-26T22:42:26.030Z,2.80
2023-04-26T22:46:55.997Z,3.70
2023-04-26T22:51:26.003Z,3.70
2023-04-26T22:55:56.123Z,3.45
2023-04-26T23:00:26.089Z,3.75
2023-04-26T23:04:57.405Z,3.08
2023-04-26T23:09:27.065Z,3.25
2023-04-26T23:13:57.050Z,2.92
2023-04-26T23:18:27.005Z,3.08
2023-04-26T23:22:57.022Z,3.70
2023-04-26T23:27:27.012Z,2.92
2023-04-26T23:31:57.082Z,2.67
2023-04-26T23:36:27.040Z,2.40
2023-04-26T23:40:57.152Z,2.20
2023-04-26T23:45:29.283Z,2.55
2023-04-26T23:49:59.006Z,2.83
2023-04-26T23:54:30.495Z,2.67
2023-04-26T23:59:00.029Z,2.75
